createdAt,value
2019-03-17T00:02:24.990Z,7.93
2019-03-17T00:04:57.435Z,7.99
2019-03-17T00:07:30.186Z,8.02
2019-03-17T00:10:02.545Z,8.06
2019-03-17T00:12:34.976Z,8.07
2019-03-17T00:15:08.195Z,8.09
2019-03-17T00:17:41.956Z,8.11
2019-03-17T00:20:15.657Z,8.09
2019-03-17T00:22:48.095Z,8.10
2019-03-17T00:25:20.751Z,8.10
2019-03-17T00:27:53.236Z,8.09
2019-03-17T00:30:25.785Z,8.11
2019-03-17T00:32:58.632Z,8.05
2019-03-17T00:35:31.191Z,8.10
2019-03-17T00:38:03.985Z,8.13
2019-03-17T00:40:36.245Z,8.10
2019-03-17T00:43:08.520Z,8.10
2019-03-17T00:45:40.925Z,8.12
2019-03-17T00:48:13.331Z,8.13
2019-03-17T00:50:48.762Z,8.14
2019-03-17T00:53:19.930Z,8.14
2019-03-17T00:55:53.240Z,8.13
2019-03-17T00:58:25.555Z,8.09
2019-03-17T01:00:57.846Z,8.15
2019-03-17T01:03:31.312Z,8.15
2019-03-17T01:06:03.943Z,8.13
2019-03-17T01:08:36.260Z,8.16
2019-03-17T01:11:08.450Z,8.16
2019-03-17T01:13:40.759Z,8.13
2019-03-17T01:16:13.246Z,8.10
2019-03-17T01:18:46.166Z,8.05
2019-03-17T01:21:18.535Z,8.04
2019-03-17T01:23:50.691Z,8.04
2019-03-17T01:26:24.039Z,8.03
2019-03-17T01:28:56.175Z,8.01
2019-03-17T01:31:28.344Z,8.01
2019-03-17T01:34:00.542Z,8.01
2019-03-17T01:36:32.830Z,8.09
2019-03-17T01:39:06.931Z,8.09
2019-03-17T01:41:40.785Z,8.06
2019-03-17T01:44:12.990Z,8.06
2019-03-17T01:46:45.490Z,8.05
2019-03-17T01:49:17.714Z,8.05
2019-03-17T01:51:49.965Z,8.11
2019-03-17T01:54:23.211Z,8.09
2019-03-17T01:56:55.625Z,8.09
2019-03-17T01:59:27.950Z,8.11
2019-03-17T02:02:00.470Z,8.14
2019-03-17T02:04:32.905Z,8.16
2019-03-17T02:07:05.305Z,8.16
2019-03-17T02:09:37.569Z,8.18
2019-03-17T02:12:09.966Z,8.18
2019-03-17T02:14:42.420Z,8.16
2019-03-17T02:17:14.584Z,8.18
2019-03-17T02:19:46.880Z,8.15
2019-03-17T02:22:19.043Z,8.15
2019-03-17T02:24:51.313Z,8.12
2019-03-17T02:27:23.870Z,8.13
2019-03-17T02:29:56.231Z,8.13
2019-03-17T02:32:28.726Z,8.10
2019-03-17T02:35:01.050Z,8.10
2019-03-17T02:37:33.437Z,8.11
2019-03-17T02:40:07.670Z,8.11
2019-03-17T02:42:39.912Z,8.11
2019-03-17T02:45:12.361Z,8.12
2019-03-17T02:47:44.575Z,8.10
2019-03-17T02:50:16.980Z,8.11
2019-03-17T02:52:49.266Z,8.05
2019-03-17T02:55:21.445Z,8.05
2019-03-17T02:57:53.765Z,8.05
2019-03-17T03:00:26.152Z,8.08
2019-03-17T03:02:58.742Z,8.05
2019-03-17T03:05:31.256Z,8.05
2019-03-17T03:08:03.904Z,8.05
2019-03-17T03:10:35.992Z,8.07
2019-03-17T03:13:08.559Z,8.07
2019-03-17T03:15:40.972Z,8.07
2019-03-17T03:18:13.209Z,8.07
2019-03-17T03:20:45.446Z,8.01
2019-03-17T03:23:18.856Z,7.98
2019-03-17T03:25:51.226Z,7.98
2019-03-17T03:28:23.591Z,8.01
2019-03-17T03:30:55.827Z,7.96
2019-03-17T03:33:28.154Z,7.98
2019-03-17T03:36:10.647Z,7.97
2019-03-17T03:38:34.657Z,7.97
2019-03-17T03:41:07.098Z,7.95
2019-03-17T03:43:39.475Z,7.95
2019-03-17T03:46:11.752Z,7.91
2019-03-17T03:48:43.910Z,7.94
2019-03-17T03:51:15.928Z,7.94
2019-03-17T03:53:48.150Z,7.91
2019-03-17T03:56:20.506Z,7.85
2019-03-17T03:58:52.848Z,7.83
2019-03-17T04:01:25.340Z,7.83
2019-03-17T04:03:57.641Z,7.83
2019-03-17T04:06:29.787Z,7.79
2019-03-17T04:09:02.317Z,7.76
2019-03-17T04:11:34.760Z,7.73
2019-03-17T04:14:07.143Z,7.70
2019-03-17T04:16:39.367Z,7.68
2019-03-17T04:19:11.776Z,7.64
2019-03-17T04:21:44.237Z,7.64
2019-03-17T04:24:16.788Z,7.63
2019-03-17T04:26:49.110Z,7.61
2019-03-17T04:29:21.715Z,7.60
2019-03-17T04:31:54.146Z,7.58
2019-03-17T04:34:26.406Z,7.54
2019-03-17T04:36:58.803Z,7.48
2019-03-17T04:39:30.912Z,7.48
2019-03-17T04:42:03.225Z,7.47
2019-03-17T04:44:35.686Z,7.45
2019-03-17T04:47:07.965Z,7.42
2019-03-17T04:49:41.628Z,7.39
2019-03-17T04:52:13.870Z,7.35
2019-03-17T04:54:46.365Z,7.34
2019-03-17T04:57:18.490Z,7.35
2019-03-17T04:59:50.901Z,7.37
2019-03-17T05:02:23.299Z,7.41
2019-03-17T05:04:55.631Z,7.44
2019-03-17T05:07:28.066Z,7.45
2019-03-17T05:10:01.415Z,7.45
2019-03-17T05:12:33.845Z,7.44
2019-03-17T05:15:11.128Z,7.46
2019-03-17T05:17:43.510Z,7.45
2019-03-17T05:20:15.935Z,7.45
2019-03-17T05:22:48.446Z,7.45
2019-03-17T05:25:20.871Z,7.49
2019-03-17T05:27:53.210Z,7.52
2019-03-17T05:30:25.745Z,7.54
2019-03-17T05:32:57.905Z,7.58
2019-03-17T05:35:30.750Z,7.56
2019-03-17T05:38:03.120Z,7.57
2019-03-17T05:40:35.520Z,7.58
2019-03-17T05:43:07.995Z,7.61
2019-03-17T05:45:40.150Z,7.62
2019-03-17T05:48:12.524Z,7.63
2019-03-17T05:50:46.016Z,7.67
2019-03-17T05:53:19.895Z,7.70
2019-03-17T05:55:52.108Z,7.73
2019-03-17T05:58:24.494Z,7.76
2019-03-17T06:00:56.930Z,7.84
2019-03-17T06:03:29.303Z,7.90
2019-03-17T06:06:01.712Z,7.97
2019-03-17T06:08:34.091Z,8.06
2019-03-17T06:11:06.755Z,8.18
2019-03-17T06:13:39.330Z,8.45
2019-03-17T06:16:12.002Z,8.45
2019-03-17T06:18:44.470Z,8.64
2019-03-17T06:21:16.835Z,8.84
2019-03-17T06:23:49.330Z,9.05
2019-03-17T06:26:22.050Z,9.42
2019-03-17T06:28:54.226Z,9.42
2019-03-17T06:31:26.485Z,9.64
2019-03-17T06:33:58.956Z,9.73
2019-03-17T06:36:31.390Z,9.81
2019-03-17T06:39:04.230Z,9.81
2019-03-17T06:41:36.560Z,10.03
2019-03-17T06:44:08.915Z,10.06
2019-03-17T06:46:41.279Z,10.20
2019-03-17T06:49:13.655Z,10.29
2019-03-17T06:51:46.020Z,10.41
2019-03-17T06:54:18.285Z,10.41
2019-03-17T06:56:50.735Z,10.51
2019-03-17T06:59:23.061Z,10.56
2019-03-17T07:01:55.415Z,10.64
2019-03-17T07:04:28.080Z,10.72
2019-03-17T07:07:00.600Z,10.80
2019-03-17T07:09:33.200Z,10.82
2019-03-17T07:12:05.731Z,10.88
2019-03-17T07:14:38.185Z,10.99
2019-03-17T07:17:10.775Z,11.04
2019-03-17T07:19:43.096Z,11.17
2019-03-17T07:22:15.369Z,11.33
2019-03-17T07:24:48.006Z,11.51
2019-03-17T07:27:21.545Z,11.61
2019-03-17T07:29:53.961Z,11.86
2019-03-17T07:32:26.403Z,12.03
2019-03-17T07:34:59.001Z,12.29
2019-03-17T07:37:31.635Z,12.36
2019-03-17T07:40:05.160Z,12.32
2019-03-17T07:42:37.571Z,12.29
2019-03-17T07:45:11.621Z,12.38
2019-03-17T07:47:44.022Z,12.48
2019-03-17T07:50:16.335Z,12.54
2019-03-17T07:52:48.805Z,12.56
2019-03-17T07:55:21.465Z,12.61
2019-03-17T07:57:54.046Z,12.49
2019-03-17T08:00:32.255Z,12.65
2019-03-17T08:03:02.020Z,12.92
2019-03-17T08:05:34.561Z,13.22
2019-03-17T08:08:09.615Z,13.40
2019-03-17T08:10:40.740Z,13.59
2019-03-17T08:13:13.175Z,13.69
2019-03-17T08:15:45.720Z,13.96
2019-03-17T08:18:18.118Z,14.10
2019-03-17T08:20:50.813Z,14.14
2019-03-17T08:23:24.430Z,14.25
2019-03-17T08:25:56.936Z,14.25
2019-03-17T08:28:29.490Z,14.27
2019-03-17T08:31:02.136Z,14.38
2019-03-17T08:33:34.812Z,14.56
2019-03-17T08:36:07.068Z,14.63
2019-03-17T08:38:39.435Z,14.65
2019-03-17T08:41:11.966Z,14.55
2019-03-17T08:43:53.727Z,14.71
2019-03-17T08:46:18.601Z,14.74
2019-03-17T08:48:50.995Z,14.89
2019-03-17T08:51:23.612Z,14.96
2019-03-17T08:53:56.017Z,15.02
2019-03-17T08:56:28.390Z,15.17
2019-03-17T08:59:00.703Z,15.14
2019-03-17T09:01:33.186Z,15.21
2019-03-17T09:04:06.265Z,15.24
2019-03-17T09:06:38.707Z,15.29
2019-03-17T09:09:10.980Z,15.47
2019-03-17T09:11:43.380Z,15.54
2019-03-17T09:14:15.831Z,15.61
2019-03-17T09:16:48.264Z,15.76
2019-03-17T09:19:20.650Z,15.87
2019-03-17T09:21:53.221Z,15.73
2019-03-17T09:24:25.655Z,16.00
2019-03-17T09:26:58.170Z,16.15
2019-03-17T09:29:30.691Z,16.12
2019-03-17T09:32:03.025Z,16.21
2019-03-17T09:34:35.445Z,16.25
2019-03-17T09:37:07.886Z,16.51
2019-03-17T09:39:40.180Z,16.41
2019-03-17T09:42:12.584Z,16.46
2019-03-17T09:44:45.119Z,16.51
2019-03-17T09:47:17.595Z,16.44
2019-03-17T09:49:49.855Z,16.38
2019-03-17T09:52:22.339Z,16.41
2019-03-17T09:54:54.660Z,16.44
2019-03-17T09:57:26.856Z,16.41
2019-03-17T09:59:59.346Z,16.35
2019-03-17T10:02:31.852Z,16.52
2019-03-17T10:05:06.461Z,16.57
2019-03-17T10:07:39.040Z,16.65
2019-03-17T10:10:21.226Z,16.42
2019-03-17T10:12:53.551Z,16.50
2019-03-17T10:15:26.205Z,16.36
2019-03-17T10:17:58.820Z,16.46
2019-03-17T10:20:31.255Z,16.69
2019-03-17T10:23:03.572Z,16.71
2019-03-17T10:25:36.150Z,16.38
2019-03-17T10:28:08.570Z,16.57
2019-03-17T10:30:40.903Z,16.59
2019-03-17T10:33:13.350Z,16.78
2019-03-17T10:35:45.835Z,16.98
2019-03-17T10:38:18.310Z,17.11
2019-03-17T10:40:50.931Z,17.22
2019-03-17T10:43:23.795Z,17.28
2019-03-17T10:45:56.135Z,17.26
2019-03-17T10:48:28.765Z,17.33
2019-03-17T10:51:01.176Z,17.39
2019-03-17T10:53:33.640Z,17.23
2019-03-17T10:56:05.956Z,17.29
2019-03-17T10:58:38.240Z,17.18
2019-03-17T11:01:11.011Z,17.19
2019-03-17T11:03:46.612Z,17.12
2019-03-17T11:06:19.130Z,17.19
2019-03-17T11:08:51.420Z,17.26
2019-03-17T11:11:23.950Z,17.18
2019-03-17T11:13:56.490Z,17.33
2019-03-17T11:16:29.150Z,17.30
2019-03-17T11:19:01.370Z,17.38
2019-03-17T11:21:33.796Z,17.63
2019-03-17T11:24:06.190Z,17.51
2019-03-17T11:26:38.641Z,17.55
2019-03-17T11:29:11.140Z,17.58
2019-03-17T11:31:43.687Z,17.72
2019-03-17T11:34:16.240Z,17.57
2019-03-17T11:36:48.768Z,17.70
2019-03-17T11:39:21.095Z,17.81
2019-03-17T11:41:53.800Z,17.92
2019-03-17T11:44:26.266Z,17.97
2019-03-17T11:46:58.500Z,18.19
2019-03-17T11:49:31.090Z,18.23
2019-03-17T11:52:03.521Z,18.42
2019-03-17T11:54:35.790Z,18.53
2019-03-17T11:57:08.380Z,18.38
2019-03-17T11:59:40.825Z,18.52
2019-03-17T12:02:25.761Z,18.59
2019-03-17T12:04:47.731Z,18.42
2019-03-17T12:07:20.191Z,18.37
2019-03-17T12:09:52.481Z,18.53
2019-03-17T12:12:24.860Z,18.51
2019-03-17T12:14:57.651Z,18.28
2019-03-17T12:17:30.101Z,18.31
2019-03-17T12:20:02.869Z,18.37
2019-03-17T12:22:36.181Z,18.51
2019-03-17T12:25:14.393Z,18.70
2019-03-17T12:27:46.930Z,18.74
2019-03-17T12:30:30.125Z,18.71
2019-03-17T12:33:02.528Z,18.62
2019-03-17T12:35:35.079Z,18.52
2019-03-17T12:38:07.803Z,18.49
2019-03-17T12:40:40.070Z,18.42
2019-03-17T12:43:12.657Z,18.34
2019-03-17T12:45:45.116Z,18.34
2019-03-17T12:48:17.680Z,18.33
2019-03-17T12:50:49.852Z,18.47
2019-03-17T12:53:22.179Z,18.56
2019-03-17T12:55:54.693Z,18.61
2019-03-17T12:58:27.245Z,18.58
2019-03-17T13:00:59.670Z,18.52
2019-03-17T13:03:32.615Z,18.42
2019-03-17T13:06:04.996Z,18.41
2019-03-17T13:08:37.492Z,18.33
2019-03-17T13:11:11.015Z,18.29
2019-03-17T13:13:43.457Z,18.35
2019-03-17T13:16:15.953Z,18.31
2019-03-17T13:18:48.080Z,18.39
2019-03-17T13:21:20.255Z,18.28
2019-03-17T13:23:52.946Z,18.30
2019-03-17T13:26:25.451Z,18.18
2019-03-17T13:28:58.086Z,18.01
2019-03-17T13:31:30.447Z,17.88
2019-03-17T13:34:02.789Z,17.88
2019-03-17T13:36:35.315Z,18.00
2019-03-17T13:39:08.210Z,17.98
2019-03-17T13:41:40.464Z,17.74
2019-03-17T13:44:13.155Z,17.80
2019-03-17T13:46:45.595Z,17.82
2019-03-17T13:49:18.117Z,17.79
2019-03-17T13:51:50.915Z,17.79
2019-03-17T13:54:23.266Z,17.67
2019-03-17T13:56:55.660Z,17.78
2019-03-17T13:59:27.996Z,17.83
2019-03-17T14:02:00.515Z,17.88
2019-03-17T14:04:32.896Z,17.95
2019-03-17T14:07:06.435Z,17.60
2019-03-17T14:09:38.860Z,17.63
2019-03-17T14:12:11.185Z,17.78
2019-03-17T14:14:43.431Z,17.70
2019-03-17T14:17:15.748Z,17.53
2019-03-17T14:19:48.250Z,17.53
2019-03-17T14:22:20.330Z,17.40
2019-03-17T14:24:52.805Z,17.49
2019-03-17T14:27:25.165Z,17.57
2019-03-17T14:29:57.677Z,17.51
2019-03-17T14:32:29.895Z,17.55
2019-03-17T14:35:02.230Z,17.34
2019-03-17T14:37:34.616Z,17.29
2019-03-17T14:40:13.435Z,17.17
2019-03-17T14:42:48.975Z,16.96
2019-03-17T14:45:21.470Z,16.93
2019-03-17T14:47:53.909Z,16.88
2019-03-17T14:50:26.488Z,16.77
2019-03-17T14:53:00.874Z,16.76
2019-03-17T14:55:33.096Z,16.66
2019-03-17T14:58:05.690Z,16.50
2019-03-17T15:00:38.162Z,16.44
2019-03-17T15:03:10.632Z,16.54
2019-03-17T15:05:43.185Z,16.46
2019-03-17T15:08:15.640Z,16.52
2019-03-17T15:10:48.086Z,16.55
2019-03-17T15:13:20.406Z,16.43
2019-03-17T15:16:02.386Z,16.41
2019-03-17T15:18:26.919Z,16.35
2019-03-17T15:20:59.500Z,16.31
2019-03-17T15:23:32.745Z,16.26
2019-03-17T15:26:05.128Z,16.18
2019-03-17T15:28:37.593Z,16.13
2019-03-17T15:31:12.033Z,16.10
2019-03-17T15:33:44.055Z,16.07
2019-03-17T15:36:16.360Z,15.90
2019-03-17T15:38:48.873Z,15.77
2019-03-17T15:41:21.381Z,15.65
2019-03-17T15:43:54.032Z,15.58
2019-03-17T15:46:26.321Z,15.49
2019-03-17T15:48:58.625Z,15.44
2019-03-17T15:51:30.885Z,15.36
2019-03-17T15:54:03.215Z,15.32
2019-03-17T15:56:35.425Z,15.23
2019-03-17T15:59:07.560Z,15.20
2019-03-17T16:01:39.935Z,15.11
2019-03-17T16:04:12.185Z,15.04
2019-03-17T16:06:44.675Z,14.97
2019-03-17T16:09:17.091Z,14.92
2019-03-17T16:11:49.815Z,14.85
2019-03-17T16:14:22.190Z,14.73
2019-03-17T16:16:54.640Z,14.65
2019-03-17T16:19:27.034Z,14.56
2019-03-17T16:21:59.611Z,14.49
2019-03-17T16:24:32.040Z,14.41
2019-03-17T16:27:04.536Z,14.34
2019-03-17T16:29:36.885Z,14.27
2019-03-17T16:32:09.545Z,14.20
2019-03-17T16:34:41.855Z,14.15
2019-03-17T16:37:14.535Z,14.08
2019-03-17T16:39:47.061Z,14.04
2019-03-17T16:42:19.510Z,14.00
2019-03-17T16:44:52.107Z,13.98
2019-03-17T16:47:24.581Z,13.99
2019-03-17T16:49:59.095Z,13.96
2019-03-17T16:52:31.733Z,13.92
2019-03-17T16:55:05.913Z,13.87
2019-03-17T16:57:39.431Z,13.87
2019-03-17T17:00:23.684Z,13.83
2019-03-17T17:02:56.350Z,13.83
2019-03-17T17:05:28.866Z,13.75
2019-03-17T17:08:01.180Z,13.72
2019-03-17T17:10:33.371Z,13.68
2019-03-17T17:13:05.787Z,13.51
2019-03-17T17:15:38.348Z,13.35
2019-03-17T17:18:10.835Z,13.20
2019-03-17T17:20:43.690Z,13.04
2019-03-17T17:23:15.945Z,12.93
2019-03-17T17:25:48.541Z,12.41
2019-03-17T17:28:20.940Z,11.73
2019-03-17T17:30:53.486Z,11.20
2019-03-17T17:33:27.914Z,10.65
2019-03-17T17:35:59.710Z,10.36
2019-03-17T17:38:32.211Z,10.16
2019-03-17T17:41:04.497Z,9.99
2019-03-17T17:43:36.960Z,9.66
2019-03-17T17:46:09.497Z,9.47
2019-03-17T17:48:41.961Z,9.29
2019-03-17T17:51:14.485Z,9.17
2019-03-17T17:53:47.430Z,9.14
2019-03-17T17:56:20.015Z,9.03
2019-03-17T17:58:52.360Z,8.94
2019-03-17T18:01:24.765Z,8.63
2019-03-17T18:03:57.296Z,8.63
2019-03-17T18:06:29.642Z,8.57
2019-03-17T18:09:02.145Z,8.34
2019-03-17T18:11:34.565Z,8.22
2019-03-17T18:14:06.965Z,8.22
2019-03-17T18:16:41.735Z,8.20
2019-03-17T18:19:14.440Z,8.13
2019-03-17T18:21:46.876Z,7.99
2019-03-17T18:24:19.435Z,8.01
2019-03-17T18:26:51.796Z,8.01
2019-03-17T18:29:23.926Z,7.99
2019-03-17T18:31:56.450Z,7.97
2019-03-17T18:34:28.775Z,7.95
2019-03-17T18:37:01.317Z,7.94
2019-03-17T18:39:34.612Z,7.93
2019-03-17T18:42:06.951Z,7.93
2019-03-17T18:44:39.235Z,7.91
2019-03-17T18:47:12.068Z,7.82
2019-03-17T18:49:44.347Z,7.79
2019-03-17T18:52:16.781Z,7.69
2019-03-17T18:54:48.874Z,7.55
2019-03-17T18:57:21.472Z,7.45
2019-03-17T18:59:53.852Z,7.46
2019-03-17T19:02:26.395Z,7.44
2019-03-17T19:04:58.911Z,7.47
2019-03-17T19:07:31.465Z,7.51
2019-03-17T19:10:04.395Z,7.49
2019-03-17T19:12:45.497Z,7.49
2019-03-17T19:15:19.860Z,7.49
2019-03-17T19:17:52.433Z,7.50
2019-03-17T19:20:25.235Z,7.41
2019-03-17T19:22:57.580Z,7.45
2019-03-17T19:25:30.055Z,7.45
2019-03-17T19:28:02.590Z,7.45
2019-03-17T19:30:35.100Z,7.43
2019-03-17T19:33:07.540Z,7.39
2019-03-17T19:35:40.070Z,7.35
2019-03-17T19:38:12.445Z,7.34
2019-03-17T19:40:44.759Z,7.35
2019-03-17T19:43:17.395Z,7.35
2019-03-17T19:45:50.033Z,7.33
2019-03-17T19:48:22.535Z,7.32
2019-03-17T19:50:56.086Z,7.31
2019-03-17T19:53:28.505Z,7.28
2019-03-17T19:56:00.906Z,7.25
2019-03-17T19:58:33.255Z,7.23
2019-03-17T20:01:05.630Z,7.19
2019-03-17T20:03:37.865Z,7.21
2019-03-17T20:06:10.745Z,7.17
2019-03-17T20:08:43.452Z,7.16
2019-03-17T20:11:15.977Z,7.12
2019-03-17T20:13:48.291Z,7.13
2019-03-17T20:16:20.525Z,7.15
2019-03-17T20:18:52.856Z,7.13
2019-03-17T20:21:25.347Z,7.15
2019-03-17T20:23:57.695Z,7.13
2019-03-17T20:26:29.905Z,7.12
2019-03-17T20:29:03.517Z,7.09
2019-03-17T20:31:36.135Z,7.10
2019-03-17T20:34:08.867Z,7.11
2019-03-17T20:36:41.400Z,7.10
2019-03-17T20:39:13.905Z,7.07
2019-03-17T20:41:46.243Z,7.05
2019-03-17T20:44:18.953Z,7.05
2019-03-17T20:46:51.274Z,7.04
2019-03-17T20:49:23.855Z,7.04
2019-03-17T20:51:56.635Z,7.01
2019-03-17T20:54:28.875Z,7.03
2019-03-17T20:57:01.191Z,7.03
2019-03-17T20:59:33.336Z,7.05
2019-03-17T21:02:05.790Z,7.06
2019-03-17T21:04:38.439Z,7.04
2019-03-17T21:07:11.205Z,7.03
2019-03-17T21:09:43.745Z,6.99
2019-03-17T21:12:17.462Z,6.98
2019-03-17T21:14:50.156Z,6.95
2019-03-17T21:17:22.625Z,6.93
2019-03-17T21:19:55.244Z,6.93
2019-03-17T21:22:27.579Z,6.89
2019-03-17T21:25:00.000Z,6.86
2019-03-17T21:27:32.412Z,6.83
2019-03-17T21:30:07.551Z,6.82
2019-03-17T21:32:39.785Z,6.81
2019-03-17T21:35:12.326Z,6.80
2019-03-17T21:37:45.940Z,6.79
2019-03-17T21:40:18.460Z,6.75
2019-03-17T21:42:50.734Z,6.73
2019-03-17T21:45:23.085Z,6.75
2019-03-17T21:47:55.287Z,6.75
2019-03-17T21:50:27.702Z,6.76
2019-03-17T21:52:59.993Z,6.73
2019-03-17T21:55:32.180Z,6.70
2019-03-17T21:58:07.995Z,6.69
2019-03-17T22:00:38.760Z,6.68
2019-03-17T22:03:14.272Z,6.67
2019-03-17T22:05:46.860Z,6.66
2019-03-17T22:08:19.255Z,6.65
2019-03-17T22:10:52.641Z,6.66
2019-03-17T22:13:24.930Z,6.65
2019-03-17T22:15:58.770Z,6.68
2019-03-17T22:18:31.026Z,6.68
2019-03-17T22:21:03.340Z,6.65
2019-03-17T22:23:35.945Z,6.68
2019-03-17T22:26:08.525Z,6.66
2019-03-17T22:28:41.040Z,6.65
2019-03-17T22:31:13.411Z,6.64
2019-03-17T22:33:45.945Z,6.65
2019-03-17T22:36:18.576Z,6.64
2019-03-17T22:38:51.901Z,6.62
2019-03-17T22:41:24.255Z,6.60
2019-03-17T22:43:56.675Z,6.59
2019-03-17T22:46:29.100Z,6.59
2019-03-17T22:49:01.505Z,6.60
2019-03-17T22:51:34.100Z,6.62
2019-03-17T22:54:06.485Z,6.62
2019-03-17T22:56:38.967Z,6.63
2019-03-17T22:59:11.200Z,6.60
2019-03-17T23:01:43.646Z,6.59
2019-03-17T23:04:15.965Z,6.58
2019-03-17T23:06:48.245Z,6.60
2019-03-17T23:09:20.701Z,6.54
2019-03-17T23:11:53.020Z,6.52
2019-03-17T23:14:36.225Z,6.51
2019-03-17T23:16:59.447Z,6.47
2019-03-17T23:19:31.850Z,6.45
2019-03-17T23:22:04.393Z,6.44
2019-03-17T23:24:36.741Z,6.41
2019-03-17T23:27:08.805Z,6.41
2019-03-17T23:29:41.380Z,6.41
2019-03-17T23:32:13.785Z,6.41
2019-03-17T23:34:46.390Z,6.43
2019-03-17T23:37:18.750Z,6.40
2019-03-17T23:39:51.300Z,6.39
2019-03-17T23:42:23.965Z,6.38
2019-03-17T23:44:56.470Z,6.35
2019-03-17T23:47:28.871Z,6.33
2019-03-17T23:50:02.227Z,6.31
2019-03-17T23:52:34.915Z,6.30
2019-03-17T23:55:10.340Z,6.28
2019-03-17T23:57:42.687Z,6.26
